Station Historical Data
Daily Summary for April 15, 2017 Units:  Metric    English   Both
« Previous Day
Next Day »
Daily Weekly Monthly Yearly Custom
  High: Low: Average:
Temperature: 22.7 °C 5.5 °C 13.9 °C
Dew Point: 14.1 °C -1.9 °C 6.5 °C
Humidity: 87% 45% 61%
Wind Speed: 30.6km/h 0km/h 5.3km/h
Wind Gust: 41.8km/h - -
Wind- - SSW
Pressure: 1025.3 hPa 1012.4 hPa -
Precipitation: 0 mm    
Historical Graphs
 
 
Tabular Data for April 15, 2017
Time Temperature Dew Point Pressure Wind Wind Speed Wind Gust Humidity Rainfall Rate (Hourly)
00:04 9 °C -1.7 °C 1025.3 hPa NE 3.2 km/h 8 km/h 47% 0 mm
00:09 8.9 °C -1.8 °C 1025.3 hPa NE 3.2 km/h 8 km/h 47% 0 mm
00:14 8.9 °C -1.8 °C 1025.3 hPa NE 3.2 km/h 8 km/h 47% 0 mm
00:19 8.8 °C -1.7 °C 1024.9 hPa Calm   6.4 km/h 48% 0 mm
00:24 8.8 °C -1.7 °C 1024.9 hPa ENE 6.4 km/h 6.4 km/h 48% 0 mm
00:29 8.7 °C -1.7 °C 1024.9 hPa ENE 6.4 km/h 8 km/h 48% 0 mm
00:34 8.6 °C -1.8 °C 1024.9 hPa ENE 1.6 km/h 6.4 km/h 48% 0 mm
00:39 8.5 °C -1.6 °C 1024.9 hPa East 3.2 km/h 8 km/h 49% 0 mm
00:44 8.4 °C -1.7 °C 1024.9 hPa East 1.6 km/h 4.8 km/h 49% 0 mm
00:49 8.3 °C -1.8 °C 1024.6 hPa East 1.6 km/h 4.8 km/h 49% 0 mm
00:54 8.2 °C -1.9 °C 1024.6 hPa Calm   4.8 km/h 49% 0 mm
00:59 8.1 °C -1.7 °C 1024.6 hPa Calm   1.6 km/h 50% 0 mm
01:04 8.1 °C -1.8 °C 1024.6 hPa Calm     50% 0 mm
01:09 7.9 °C -1.6 °C 1024.3 hPa Calm     51% 0 mm
01:14 7.8 °C -1.7 °C 1024.3 hPa Calm     51% 0 mm
01:19 7.8 °C -1.7 °C 1024.3 hPa Calm     51% 0 mm
01:24 7.7 °C -1.8 °C 1024.3 hPa Calm     51% 0 mm
01:29 7.6 °C -1.6 °C 1024.3 hPa Calm     52% 0 mm
01:34 7.6 °C -1.7 °C 1024.3 hPa Calm   4.8 km/h 52% 0 mm
01:39 7.5 °C -1.7 °C 1023.9 hPa ENE 3.2 km/h 4.8 km/h 52% 0 mm
01:44 7.4 °C -1.8 °C 1023.9 hPa Calm   3.2 km/h 52% 0 mm
01:49 7.4 °C -1.8 °C 1023.9 hPa Calm   1.6 km/h 52% 0 mm
01:54 7.4 °C -1.8 °C 1023.9 hPa Calm   1.6 km/h 52% 0 mm
01:59 7.3 °C -1.6 °C 1023.9 hPa Calm   1.6 km/h 53% 0 mm
02:04 7.3 °C -1.6 °C 1023.9 hPa ENE 1.6 km/h 3.2 km/h 53% 0 mm
02:09 7.3 °C -1.7 °C 1023.9 hPa Calm   3.2 km/h 53% 0 mm
02:14 7.2 °C -1.7 °C 1023.9 hPa ENE 1.6 km/h 3.2 km/h 53% 0 mm
02:19 7.2 °C -1.7 °C 1023.6 hPa Calm   3.2 km/h 53% 0 mm
02:24 7.2 °C -1.8 °C 1023.6 hPa Calm   3.2 km/h 53% 0 mm
02:29 7.1 °C -1.8 °C 1023.6 hPa Calm   1.6 km/h 53% 0 mm
02:34 7.1 °C -1.6 °C 1023.6 hPa Calm   1.6 km/h 54% 0 mm
02:39 7.1 °C -1.6 °C 1023.6 hPa Calm     54% 0 mm
02:44 7 °C -1.7 °C 1023.2 hPa Calm     54% 0 mm
02:49 6.9 °C -1.5 °C 1023.2 hPa Calm     55% 0 mm
02:54 6.9 °C -1.5 °C 1023.2 hPa Calm     55% 0 mm
02:59 6.9 °C -1.5 °C 1023.2 hPa Calm     55% 0 mm
03:04 6.9 °C -1.6 °C 1023.2 hPa Calm     55% 0 mm
03:09 6.8 °C -1.6 °C 1022.9 hPa Calm     55% 0 mm
03:14 6.8 °C -1.6 °C 1022.9 hPa Calm     55% 0 mm
03:19 6.8 °C -1.9 °C 1022.9 hPa Calm     54% 0 mm
03:24 6.7 °C -1.9 °C 1022.9 hPa Calm     54% 0 mm
03:29 6.7 °C -1.7 °C 1022.9 hPa Calm     55% 0 mm
03:34 6.6 °C -1.8 °C 1022.9 hPa Calm     55% 0 mm
03:39 6.5 °C -1.7 °C 1022.9 hPa Calm     56% 0 mm
03:44 6.4 °C -1.8 °C 1022.6 hPa Calm     56% 0 mm
03:49 6.3 °C -1.9 °C 1022.6 hPa Calm     56% 0 mm
03:54 6.2 °C -1.7 °C 1022.6 hPa Calm     57% 0 mm
03:59 6.1 °C -1.6 °C 1022.6 hPa Calm     58% 0 mm
04:04 6 °C -1.4 °C 1022.6 hPa Calm     59% 0 mm
04:09 5.9 °C -1.4 °C 1022.6 hPa Calm     59% 0 mm
04:14 5.9 °C -1.3 °C 1022.2 hPa Calm     60% 0 mm
04:19 5.8 °C -1.3 °C 1022.2 hPa Calm     60% 0 mm
04:24 5.8 °C -1.1 °C 1022.2 hPa Calm     61% 0 mm
04:29 5.8 °C -1.1 °C 1022.2 hPa Calm     61% 0 mm
04:34 5.8 °C -1.1 °C 1022.2 hPa Calm     61% 0 mm
04:39 5.8 °C -1.1 °C 1021.9 hPa Calm     61% 0 mm
04:44 5.8 °C -1.1 °C 1021.9 hPa Calm     61% 0 mm
04:49 5.8 °C -1.2 °C 1021.9 hPa Calm     61% 0 mm
04:54 5.8 °C -1.2 °C 1021.9 hPa Calm     61% 0 mm
04:59 5.7 °C -1.2 °C 1021.9 hPa Calm     61% 0 mm
05:04 5.7 °C -1.1 °C 1021.9 hPa Calm     62% 0 mm
05:09 5.7 °C -1.1 °C 1021.6 hPa Calm     62% 0 mm
05:14 5.7 °C -1.1 °C 1021.9 hPa Calm     62% 0 mm
05:19 5.6 °C -1.2 °C 1021.9 hPa Calm     62% 0 mm
05:24 5.6 °C -1.2 °C 1021.9 hPa Calm     62% 0 mm
05:29 5.5 °C -1 °C 1021.6 hPa Calm     63% 0 mm
05:34 5.5 °C -0.8 °C 1021.6 hPa Calm     64% 0 mm
05:39 5.5 °C -0.8 °C 1021.6 hPa Calm     64% 0 mm
05:44 5.5 °C -0.8 °C 1021.6 hPa Calm     64% 0 mm
05:49 5.5 °C -0.6 °C 1021.6 hPa Calm     65% 0 mm
05:54 5.5 °C -0.6 °C 1021.6 hPa Calm     65% 0 mm
05:59 5.5 °C -0.6 °C 1021.6 hPa Calm     65% 0 mm
06:04 5.5 °C -0.6 °C 1021.6 hPa Calm     65% 0 mm
06:09 5.5 °C -0.6 °C 1021.6 hPa Calm     65% 0 mm
06:14 5.5 °C -0.6 °C 1021.6 hPa Calm     65% 0 mm
06:19 5.5 °C -0.6 °C 1021.6 hPa Calm     65% 0 mm
06:24 5.6 °C -0.3 °C 1021.6 hPa Calm     66% 0 mm
06:29 5.6 °C -0.3 °C 1021.6 hPa Calm     66% 0 mm
06:34 5.6 °C -0.3 °C 1021.6 hPa Calm     66% 0 mm
06:39 5.6 °C -0.2 °C 1021.6 hPa Calm     66% 0 mm
06:44 5.7 °C -0.2 °C 1021.6 hPa Calm     66% 0 mm
06:49 5.7 °C -0.2 °C 1021.6 hPa Calm     66% 0 mm
06:54 5.7 °C 0 °C 1021.6 hPa Calm     67% 0 mm
06:59 5.7 °C 0.1 °C 1021.6 hPa Calm     67% 0 mm
07:04 5.8 °C 0.1 °C 1021.6 hPa Calm     67% 0 mm
07:09 5.8 °C 0.4 °C 1021.6 hPa Calm     68% 0 mm
07:14 5.8 °C 0.4 °C 1021.6 hPa Calm     68% 0 mm
07:19 5.9 °C 0.5 °C 1021.6 hPa Calm     68% 0 mm
07:24 6.1 °C 0.8 °C 1021.6 hPa Calm     69% 0 mm
07:29 6.2 °C 0.9 °C 1021.6 hPa Calm     69% 0 mm
07:34 6.3 °C 1.1 °C 1021.6 hPa Calm     69% 0 mm
07:39 6.6 °C 1.3 °C 1021.6 hPa Calm     69% 0 mm
07:44 6.8 °C 1.3 °C 1021.6 hPa Calm     68% 0 mm
07:49 7 °C 1.3 °C 1021.6 hPa Calm     67% 0 mm
07:54 7.3 °C 1.6 °C 1021.6 hPa Calm     67% 0 mm
07:59 7.6 °C 1.7 °C 1021.6 hPa Calm     66% 0 mm
08:04 8 °C 2.1 °C 1021.6 hPa Calm     66% 0 mm
08:09 8.4 °C 2.4 °C 1021.2 hPa Calm     66% 0 mm
08:14 8.8 °C 2.6 °C 1021.2 hPa Calm     65% 0 mm
08:19 9.3 °C 3.1 °C 1021.2 hPa Calm     65% 0 mm
08:24 9.8 °C 3.3 °C 1021.2 hPa Calm     64% 0 mm
08:29 10.4 °C 3.7 °C 1021.2 hPa Calm     63% 0 mm
08:34 11 °C 4 °C 1020.9 hPa Calm     62% 0 mm
08:39 11.7 °C 4.2 °C 1020.9 hPa Calm   4.8 km/h 60% 0 mm
08:44 12.6 °C 4.8 °C 1020.9 hPa South 1.6 km/h 6.4 km/h 59% 0 mm
08:49 13.3 °C 4.9 °C 1020.5 hPa South 4.8 km/h 9.7 km/h 57% 0 mm
08:54 13.9 °C 5.3 °C 1020.9 hPa SSW 1.6 km/h 9.7 km/h 56% 0 mm
08:59 14.6 °C 5.4 °C 1020.9 hPa SSW 4.8 km/h 9.7 km/h 54% 0 mm
09:04 15.2 °C 5.9 °C 1020.9 hPa SSW 4.8 km/h 9.7 km/h 54% 0 mm
09:09 15.6 °C 5.5 °C 1020.9 hPa SW 4.8 km/h 9.7 km/h 51% 0 mm
09:14 16 °C 5.3 °C 1020.5 hPa SSW 1.6 km/h 9.7 km/h 49% 0 mm
09:19 16.4 °C 6.3 °C 1020.5 hPa WSW 8 km/h 8 km/h 51% 0 mm
09:24 16.8 °C 6 °C 1020.5 hPa SW 4.8 km/h 11.3 km/h 49% 0 mm
09:29 17.1 °C 5.7 °C 1020.5 hPa SSW 3.2 km/h 9.7 km/h 47% 0 mm
09:34 17.3 °C 6.2 °C 1020.2 hPa SSW 4.8 km/h 9.7 km/h 48% 0 mm
09:39 17.6 °C 6.4 °C 1020.2 hPa SW 3.2 km/h 9.7 km/h 48% 0 mm
09:44 17.8 °C 6.3 °C 1020.2 hPa SSW 4.8 km/h 8 km/h 47% 0 mm
09:49 18 °C 6.5 °C 1020.2 hPa SW 4.8 km/h 9.7 km/h 47% 0 mm
09:54 18.2 °C 6.7 °C 1020.2 hPa SSW 4.8 km/h 8 km/h 47% 0 mm
09:59 18.4 °C 6.9 °C 1020.2 hPa SSW 4.8 km/h 8 km/h 47% 0 mm
10:04 18.6 °C 6.8 °C 1019.9 hPa Calm   8 km/h 46% 0 mm
10:09 18.8 °C 6.9 °C 1020.2 hPa SW 4.8 km/h 4.8 km/h 46% 0 mm
10:14 18.9 °C 6.7 °C 1019.9 hPa WSW 3.2 km/h 8 km/h 45% 0 mm
10:19 18.9 °C 7.1 °C 1020.2 hPa West 1.6 km/h 6.4 km/h 46% 0 mm
10:24 19.1 °C 7.5 °C 1020.2 hPa WSW 4.8 km/h 8 km/h 47% 0 mm
10:29 19.1 °C 7.5 °C 1020.2 hPa West 3.2 km/h 8 km/h 47% 0 mm
10:34 19.1 °C 7.2 °C 1020.2 hPa West 4.8 km/h 14.5 km/h 46% 0 mm
10:39 19 °C 7.1 °C 1020.2 hPa West 6.4 km/h 14.5 km/h 46% 0 mm
10:44 18.9 °C 7 °C 1020.2 hPa West 4.8 km/h 12.9 km/h 46% 0 mm
10:49 18.8 °C 6.9 °C 1020.2 hPa West 4.8 km/h 11.3 km/h 46% 0 mm
10:54 18.6 °C 6.7 °C 1020.2 hPa WNW 6.4 km/h 6.4 km/h 46% 0 mm
10:59 18.4 °C 6.9 °C 1020.2 hPa West 6.4 km/h 12.9 km/h 47% 0 mm
11:04 18.2 °C 7.3 °C 1020.2 hPa West 6.4 km/h 12.9 km/h 49% 0 mm
11:09 18 °C 7.4 °C 1020.2 hPa West 6.4 km/h 12.9 km/h 50% 0 mm
11:14 17.7 °C 7.4 °C 1020.2 hPa West 3.2 km/h 11.3 km/h 51% 0 mm
11:19 17.5 °C 8.6 °C 1020.2 hPa Calm   6.4 km/h 56% 0 mm
11:24 17.4 °C 9.6 °C 1019.9 hPa Calm   3.2 km/h 60% 0 mm
11:29 17.2 °C 9.1 °C 1019.9 hPa Calm   4.8 km/h 59% 0 mm
11:34 17.1 °C 9.2 °C 1019.9 hPa SW 1.6 km/h 4.8 km/h 60% 0 mm
11:39 16.9 °C 8.9 °C 1019.9 hPa Calm   3.2 km/h 59% 0 mm
11:44 16.8 °C 9 °C 1019.9 hPa Calm   4.8 km/h 60% 0 mm
11:49 16.8 °C 9.4 °C 1019.5 hPa Calm   1.6 km/h 62% 0.25 mm
11:54 16.7 °C 9.4 °C 1019.5 hPa SSW 1.6 km/h 3.2 km/h 62% 0.25 mm
11:59 16.7 °C 9.6 °C 1019.5 hPa SSW 1.6 km/h 3.2 km/h 63% 0.25 mm
12:04 16.6 °C 9.6 °C 1019.5 hPa SSW 1.6 km/h 3.2 km/h 63% 0.25 mm
12:09 16.6 °C 9.5 °C 1019.5 hPa SSW 1.6 km/h 6.4 km/h 63% 0.25 mm
12:14 16.6 °C 9.7 °C 1019.5 hPa SSW 3.2 km/h 8 km/h 64% 0.25 mm
12:19 16.5 °C 9.4 °C 1019.5 hPa SW 1.6 km/h 8 km/h 63% 0.25 mm
12:24 16.4 °C 9.6 °C 1019.5 hPa SW 3.2 km/h 8 km/h 64% 0.25 mm
12:29 16.3 °C 9.5 °C 1019.5 hPa SW 4.8 km/h 8 km/h 64% 0.25 mm
12:34 16.1 °C 9.5 °C 1019.5 hPa SW 4.8 km/h 12.9 km/h 65% 0.51 mm
12:39 15.9 °C 10.1 °C 1019.5 hPa SW 1.6 km/h 8 km/h 68% 0.51 mm
12:44 15.8 °C 10.2 °C 1019.5 hPa South 3.2 km/h 4.8 km/h 69% 0.76 mm
12:49 15.7 °C 10.3 °C 1019.5 hPa SSW 6.4 km/h 11.3 km/h 70% 0.51 mm
12:54 15.4 °C 9.8 °C 1019.5 hPa SW 4.8 km/h 11.3 km/h 69% 0.51 mm
12:59 15.3 °C 9.8 °C 1019.5 hPa SSW 4.8 km/h 12.9 km/h 70% 0.51 mm
13:04 15.1 °C 9.7 °C 1019.5 hPa SSW 4.8 km/h 12.9 km/h 70% 0.51 mm
13:09 15 °C 9.8 °C 1019.5 hPa SW 4.8 km/h 12.9 km/h 71% 0.51 mm
13:14 14.8 °C 9.8 °C 1019.5 hPa SW 6.4 km/h 12.9 km/h 72% 0.76 mm
13:19 14.6 °C 9.6 °C 1019.5 hPa SW 6.4 km/h 11.3 km/h 72% 0.76 mm
13:24 14.6 °C 9.8 °C 1019.2 hPa South 12.9 km/h 14.5 km/h 73% 0.76 mm
13:29 14.3 °C 9.8 °C 1019.2 hPa SW 9.7 km/h 16.1 km/h 74% 0.76 mm
13:34 14.2 °C 9.8 °C 1018.8 hPa SW 8 km/h 16.1 km/h 75% 0.76 mm
13:39 14.1 °C 9.9 °C 1018.5 hPa SW 6.4 km/h 12.9 km/h 76% 0.76 mm
13:44 13.9 °C 10 °C 1018.2 hPa SSW 11.3 km/h 14.5 km/h 77% 0.51 mm
13:49 13.9 °C 10.1 °C 1018.5 hPa SSW 9.7 km/h 16.1 km/h 78% 0.51 mm
13:54 13.8 °C 10.2 °C 1018.2 hPa South 6.4 km/h 17.7 km/h 79% 0.51 mm
13:59 13.7 °C 10.1 °C 1018.5 hPa SSW 8 km/h 20.9 km/h 79% 0.76 mm
14:04 13.6 °C 10 °C 1018.2 hPa South 8 km/h 22.5 km/h 79% 0.76 mm
14:09 13.5 °C 10.1 °C 1018.2 hPa South 12.9 km/h 16.1 km/h 80% 1.52 mm
14:14 13.3 °C 10.2 °C 1017.8 hPa South 6.4 km/h 14.5 km/h 81% 1.52 mm
14:19 13.3 °C 10.5 °C 1017.5 hPa South 12.9 km/h 12.9 km/h 83% 1.52 mm
14:24 13.4 °C 10.8 °C 1017.2 hPa South 6.4 km/h 16.1 km/h 84% 1.52 mm
14:29 13.7 °C 11.4 °C 1017.2 hPa South 9.7 km/h 14.5 km/h 86% 1.52 mm
14:34 14.1 °C 11.9 °C 1016.8 hPa South 8 km/h 16.1 km/h 87% 1.27 mm
14:39 14.6 °C 12.4 °C 1016.8 hPa SSW 9.7 km/h 16.1 km/h 87% 1.27 mm
14:44 15 °C 12.8 °C 1016.8 hPa South 9.7 km/h 16.1 km/h 87% 1.27 mm
14:49 15.4 °C 13.2 °C 1016.8 hPa South 9.7 km/h 17.7 km/h 87% 1.27 mm
14:54 16.8 °C 13.7 °C 1016.5 hPa SSW 9.7 km/h 29 km/h 82% 1.27 mm
14:59 17.3 °C 13.4 °C 1016.5 hPa SSW 9.7 km/h 24.1 km/h 78% 1.02 mm
15:04 18.1 °C 13.9 °C 1016.5 hPa South 9.7 km/h 19.3 km/h 77% 1.02 mm
15:09 18.4 °C 13.7 °C 1016.1 hPa SSW 11.3 km/h 25.7 km/h 74% 0.25 mm
15:14 18.8 °C 13.8 °C 1016.1 hPa SSW 9.7 km/h 20.9 km/h 73% 0 mm
15:19 18.8 °C 13.7 °C 1015.8 hPa SE 12.9 km/h 27.4 km/h 72% 0 mm
15:24 19.4 °C 13.8 °C 1015.5 hPa South 16.1 km/h 22.5 km/h 70% 0 mm
15:29 19.8 °C 13.7 °C 1015.5 hPa SW 11.3 km/h 32.2 km/h 68% 0 mm
15:34 20.1 °C 13.9 °C 1015.5 hPa SSW 12.9 km/h 32.2 km/h 68% 0 mm
15:39 20.4 °C 13.7 °C 1015.1 hPa SSW 12.9 km/h 27.4 km/h 65% 0 mm
15:44 20.8 °C 13.5 °C 1015.1 hPa SSW 12.9 km/h 27.4 km/h 63% 0 mm
15:49 21 °C 13.7 °C 1015.1 hPa SSW 12.9 km/h 27.4 km/h 63% 0 mm
15:54 21.1 °C 13.7 °C 1015.1 hPa SSW 12.9 km/h 25.7 km/h 63% 0 mm
15:59 21.4 °C 13.6 °C 1014.8 hPa SW 12.9 km/h 24.1 km/h 61% 0 mm
16:04 21.4 °C 13.6 °C 1014.8 hPa SW 17.7 km/h 25.7 km/h 61% 0 mm
16:09 21.6 °C 13.4 °C 1014.4 hPa SSE 16.1 km/h 32.2 km/h 60% 0 mm
16:14 21.9 °C 14 °C 1014.4 hPa SW 8 km/h 22.5 km/h 61% 0 mm
16:19 22.2 °C 13.6 °C 1014.4 hPa SW 30.6 km/h 35.4 km/h 58% 0 mm
16:24 22.2 °C 13.8 °C 1014.1 hPa SSW 12.9 km/h 30.6 km/h 59% 0 mm
16:29 22.2 °C 13.8 °C 1014.1 hPa SW 16.1 km/h 33.8 km/h 59% 0 mm
16:34 22.4 °C 13.7 °C 1014.1 hPa SW 16.1 km/h 33.8 km/h 58% 0 mm
16:39 22.6 °C 13.9 °C 1014.1 hPa SW 14.5 km/h 30.6 km/h 58% 0 mm
16:44 22.4 °C 13.8 °C 1014.1 hPa SSW 16.1 km/h 32.2 km/h 58% 0 mm
16:49 22.7 °C 13.7 °C 1014.1 hPa SW 14.5 km/h 32.2 km/h 57% 0 mm
16:54 22.7 °C 14.1 °C 1014.1 hPa SW 17.7 km/h 20.9 km/h 58% 0 mm
16:59 22.7 °C 13.5 °C 1014.1 hPa SW 14.5 km/h 32.2 km/h 56% 0 mm
17:04 22.7 °C 13.2 °C 1014.1 hPa SW 17.7 km/h 35.4 km/h 55% 0 mm
17:09 22.7 °C 13.2 °C 1014.1 hPa SSW 11.3 km/h 33.8 km/h 55% 0 mm
17:14 22.6 °C 13.1 °C 1014.1 hPa WSW 20.9 km/h 33.8 km/h 55% 0 mm
17:19 22.6 °C 12.8 °C 1013.8 hPa WSW 20.9 km/h 33.8 km/h 54% 0 mm
17:24 22.5 °C 12.7 °C 1013.8 hPa WSW 20.9 km/h 38.6 km/h 54% 0 mm
17:29 22.5 °C 12.7 °C 1014.1 hPa SW 19.3 km/h 38.6 km/h 54% 0 mm
17:34 22.3 °C 12.6 °C 1014.1 hPa WSW 17.7 km/h 41.8 km/h 54% 0 mm
17:39 22 °C 12.6 °C 1013.8 hPa WSW 19.3 km/h 41.8 km/h 55% 0 mm
17:44 21.8 °C 12.3 °C 1013.8 hPa WNW 14.5 km/h 35.4 km/h 55% 0 mm
17:49 21.6 °C 12.1 °C 1013.8 hPa WSW 19.3 km/h 30.6 km/h 55% 0 mm
17:54 21.6 °C 12.1 °C 1013.8 hPa SSW 11.3 km/h 30.6 km/h 55% 0 mm
17:59 21.6 °C 12.4 °C 1013.8 hPa WSW 17.7 km/h 30.6 km/h 56% 0 mm
18:04 21.6 °C 12.2 °C 1013.8 hPa WSW 17.7 km/h 33.8 km/h 55% 0 mm
18:09 21.6 °C 12.2 °C 1013.8 hPa WSW 17.7 km/h 33.8 km/h 55% 0 mm
18:14 21.6 °C 12.2 °C 1013.8 hPa WSW 16.1 km/h 29 km/h 55% 0 mm
18:19 21.6 °C 12.1 °C 1013.8 hPa WSW 14.5 km/h 29 km/h 55% 0 mm
18:24 21.4 °C 12 °C 1013.8 hPa WSW 12.9 km/h 22.5 km/h 55% 0 mm
18:29 21.2 °C 12.1 °C 1013.8 hPa WSW 12.9 km/h 22.5 km/h 56% 0 mm
18:34 20.8 °C 11.7 °C 1013.8 hPa WSW 9.7 km/h 24.1 km/h 56% 0 mm
18:39 20.7 °C 11.8 °C 1013.8 hPa SSW 14.5 km/h 24.1 km/h 57% 0 mm
18:44 20.6 °C 12.1 °C 1013.4 hPa SW 11.3 km/h 25.7 km/h 58% 0 mm
18:49 20.3 °C 11.6 °C 1013.4 hPa SW 9.7 km/h 27.4 km/h 57% 0 mm
18:54 19.9 °C 11.4 °C 1013.4 hPa WSW 11.3 km/h 27.4 km/h 58% 0 mm
18:59 19.7 °C 11.4 °C 1013.4 hPa SW 12.9 km/h 27.4 km/h 59% 0 mm
19:04 19.4 °C 11.5 °C 1013.1 hPa SW 11.3 km/h 20.9 km/h 60% 0 mm
19:09 19.3 °C 11.4 °C 1013.1 hPa SW 11.3 km/h 24.1 km/h 60% 0 mm
19:14 19.2 °C 11.5 °C 1013.1 hPa SW 11.3 km/h 24.1 km/h 61% 0 mm
19:19 19.2 °C 11.5 °C 1013.1 hPa SW 9.7 km/h 24.1 km/h 61% 0 mm
19:24 19.2 °C 11.5 °C 1013.1 hPa WSW 8 km/h 24.1 km/h 61% 0 mm
19:29 19.3 °C 11.6 °C 1013.1 hPa SW 11.3 km/h 24.1 km/h 61% 0 mm
19:34 19.2 °C 11.5 °C 1013.1 hPa SW 9.7 km/h 12.9 km/h 61% 0 mm
19:39 19.2 °C 11.8 °C 1013.1 hPa SW 9.7 km/h 14.5 km/h 62% 0 mm
19:44 19.2 °C 11.8 °C 1013.1 hPa SW 8 km/h 14.5 km/h 62% 0 mm
19:49 19.2 °C 11.7 °C 1013.1 hPa WSW 11.3 km/h 17.7 km/h 62% 0 mm
19:54 19.2 °C 11.5 °C 1013.1 hPa WSW 9.7 km/h 22.5 km/h 61% 0 mm
19:59 19.1 °C 11.4 °C 1013.1 hPa SW 11.3 km/h 22.5 km/h 61% 0 mm
20:04 18.8 °C 11.1 °C 1013.1 hPa WSW 9.7 km/h 19.3 km/h 61% 0 mm
20:09 18.3 °C 10.7 °C 1013.1 hPa WSW 9.7 km/h 17.7 km/h 61% 0 mm
20:14 17.9 °C 10.6 °C 1013.1 hPa WSW 9.7 km/h 17.7 km/h 62% 0 mm
20:19 17.6 °C 10.5 °C 1013.1 hPa WSW 6.4 km/h 16.1 km/h 63% 0 mm
20:24 17.3 °C 10.4 °C 1013.1 hPa SW 8 km/h 14.5 km/h 64% 0 mm
20:29 17.2 °C 10.3 °C 1013.1 hPa SW 8 km/h 20.9 km/h 64% 0 mm
20:34 16.9 °C 10.3 °C 1013.1 hPa SW 8 km/h 20.9 km/h 65% 0 mm
20:39 16.7 °C 10.1 °C 1013.1 hPa SSW 6.4 km/h 12.9 km/h 65% 0 mm
20:44 16.6 °C 10.2 °C 1013.1 hPa SW 1.6 km/h 11.3 km/h 66% 0 mm
20:49 16.4 °C 10.1 °C 1013.1 hPa WSW 4.8 km/h 12.9 km/h 66% 0 mm
20:54 16.3 °C 10.2 °C 1013.1 hPa SW 8 km/h 11.3 km/h 67% 0 mm
20:59 16.2 °C 10.3 °C 1013.1 hPa SW 4.8 km/h 9.7 km/h 68% 0 mm
21:04 16.1 °C 10.2 °C 1013.1 hPa SW 4.8 km/h 9.7 km/h 68% 0 mm
21:09 16 °C 10.1 °C 1013.1 hPa SW 3.2 km/h 6.4 km/h 68% 0 mm
21:14 15.9 °C 10.2 °C 1013.1 hPa SW 3.2 km/h 8 km/h 69% 0 mm
21:19 15.8 °C 10.1 °C 1013.1 hPa SW 3.2 km/h 8 km/h 69% 0 mm
21:24 15.7 °C 10 °C 1013.1 hPa SW 4.8 km/h 6.4 km/h 69% 0 mm
21:29 15.6 °C 9.9 °C 1013.1 hPa SW 1.6 km/h 4.8 km/h 69% 0 mm
21:34 15.5 °C 10.1 °C 1013.1 hPa SW 3.2 km/h 8 km/h 70% 0 mm
21:39 15.4 °C 9.9 °C 1013.1 hPa SW 3.2 km/h 8 km/h 70% 0 mm
21:44 15.3 °C 10.1 °C 1013.1 hPa SSW 3.2 km/h 8 km/h 71% 0 mm
21:49 15.3 °C 10.1 °C 1012.8 hPa SSW 4.8 km/h 6.4 km/h 71% 0 mm
21:54 15.3 °C 10.1 °C 1012.8 hPa SW 4.8 km/h 4.8 km/h 71% 0 mm
21:59 15.2 °C 10.2 °C 1012.8 hPa SW 1.6 km/h 4.8 km/h 72% 0 mm
22:04 15.2 °C 10.2 °C 1012.8 hPa SW 1.6 km/h 4.8 km/h 72% 0 mm
22:09 15.2 °C 10.2 °C 1012.8 hPa SW 1.6 km/h 4.8 km/h 72% 0 mm
22:14 15.2 °C 10.4 °C 1012.8 hPa SW 1.6 km/h 6.4 km/h 73% 0 mm
22:19 15.2 °C 10.4 °C 1012.8 hPa SW 1.6 km/h 4.8 km/h 73% 0 mm
22:24 15.3 °C 10.7 °C 1012.8 hPa SSW 3.2 km/h 6.4 km/h 74% 0 mm
22:29 15.4 °C 11 °C 1012.8 hPa South 6.4 km/h 8 km/h 75% 0 mm
22:34 16 °C 11.8 °C 1012.8 hPa SSW 4.8 km/h 12.9 km/h 76% 0 mm
22:39 16.5 °C 12.1 °C 1012.8 hPa SSW 6.4 km/h 14.5 km/h 75% 0 mm
22:44 17.2 °C 12.1 °C 1012.8 hPa SW 6.4 km/h 19.3 km/h 72% 0 mm
22:49 17.8 °C 12.3 °C 1012.8 hPa South 6.4 km/h 20.9 km/h 70% 0 mm
22:54 18.4 °C 12.4 °C 1012.8 hPa SW 6.4 km/h 16.1 km/h 68% 0 mm
22:59 18.7 °C 12.4 °C 1012.4 hPa WSW 4.8 km/h 12.9 km/h 67% 0 mm
23:04 18.9 °C 12.4 °C 1012.8 hPa SW 6.4 km/h 12.9 km/h 66% 0 mm
23:09 19.2 °C 12.4 °C 1012.8 hPa SW 6.4 km/h 14.5 km/h 65% 0 mm
23:14 19.2 °C 12.5 °C 1012.4 hPa WSW 8 km/h 12.9 km/h 65% 0 mm
23:19 19.3 °C 12.3 °C 1012.4 hPa SW 6.4 km/h 11.3 km/h 64% 0 mm
23:24 19.3 °C 12.3 °C 1012.8 hPa SW 3.2 km/h 12.9 km/h 64% 0 mm
23:29 19.3 °C 12.3 °C 1012.4 hPa SW 6.4 km/h 12.9 km/h 64% 0 mm
23:34 19.3 °C 12.3 °C 1012.4 hPa SW 6.4 km/h 12.9 km/h 64% 0 mm
23:39 19.3 °C 12.3 °C 1012.4 hPa SW 6.4 km/h 12.9 km/h 64% 0 mm
23:44 19.3 °C 12.3 °C 1012.4 hPa SW 6.4 km/h 12.9 km/h 64% 0 mm
23:49 19.3 °C 12.3 °C 1012.4 hPa SW 4.8 km/h 12.9 km/h 64% 0 mm
23:54 19.3 °C 12.3 °C 1012.4 hPa SW 4.8 km/h 12.9 km/h 64% 0 mm
23:59 19.3 °C 12.3 °C 1012.4 hPa SW 4.8 km/h 12.9 km/h 64% 0 mm
Buffalo, New York, USA
Compliments of Weather Underground - 2.5 mb